Time;durP1;ratioP1;P1;durP2;ratioP2;P2;SDS_P1;SDS_P2;PMS_P1;PMS_P2;Temp;Humidity;BMP_temperature;BMP_pressure;BME280_temperature;BME280_humidity;BME280_pressure;Samples;Min_cycle;Max_cycle;Signal;HPM_P1;HPM_P2
2023/08/17 00:00:38;;;;;;;5.88;2.10;;;;;;;;;;5050848;28;20662;-59
2023/08/17 00:03:03;;;;;;;6.10;2.00;;;;;;;;;;5048670;28;20222;-59
2023/08/17 00:05:29;;;;;;;6.68;2.00;;;;;;;;;;5051480;28;20226;-59
2023/08/17 00:07:55;;;;;;;6.50;2.17;;;;;;;;;;5050639;28;20618;-59
2023/08/17 00:10:20;;;;;;;6.07;2.00;;;;;;;;;;5047976;28;20215;-59
2023/08/17 00:12:45;;;;;;;9.23;2.40;;;;;;;;;;5051437;28;20219;-59
2023/08/17 00:15:11;;;;;;;6.38;2.15;;;;;;;;;;5050020;28;20214;-59
2023/08/17 00:17:36;;;;;;;5.07;2.40;;;;;;;;;;5049658;28;20226;-59
2023/08/17 00:20:04;;;;;;;8.00;2.40;;;;;;;;;;5053706;28;20235;-59
2023/08/17 00:22:30;;;;;;;5.00;2.40;;;;;;;;;;5050048;28;20213;-59
2023/08/17 00:24:55;;;;;;;6.05;2.10;;;;;;;;;;5051105;28;20235;-59
2023/08/17 00:27:20;;;;;;;7.43;2.15;;;;;;;;;;5048862;28;20229;-59
2023/08/17 00:29:46;;;;;;;7.93;2.50;;;;;;;;;;5049877;28;20240;-59
2023/08/17 00:32:11;;;;;;;7.53;2.53;;;;;;;;;;5050099;28;20215;-59
2023/08/17 00:34:36;;;;;;;8.75;2.58;;;;;;;;;;5050279;28;20207;-59
2023/08/17 00:37:02;;;;;;;7.28;2.40;;;;;;;;;;5048031;28;20215;-59
2023/08/17 00:39:27;;;;;;;7.03;2.20;;;;;;;;;;5050543;28;20739;-59
2023/08/17 00:41:52;;;;;;;7.15;2.40;;;;;;;;;;5051005;28;20682;-59
2023/08/17 00:44:17;;;;;;;6.57;2.38;;;;;;;;;;5047085;28;20207;-59
2023/08/17 00:46:43;;;;;;;5.70;2.25;;;;;;;;;;5050504;28;20207;-59
2023/08/17 00:49:08;;;;;;;6.15;2.08;;;;;;;;;;5050301;28;20252;-59
2023/08/17 00:51:33;;;;;;;8.80;2.40;;;;;;;;;;5030521;28;20207;-59
2023/08/17 00:53:59;;;;;;;8.88;2.40;;;;;;;;;;5049347;28;20261;-59
2023/08/17 00:56:24;;;;;;;8.20;2.42;;;;;;;;;;5049778;28;20211;-59
2023/08/17 00:58:50;;;;;;;6.55;2.33;;;;;;;;;;5031556;28;20218;-59
2023/08/17 01:01:15;;;;;;;4.47;2.17;;;;;;;;;;5048110;28;20239;-59
2023/08/17 01:03:41;;;;;;;7.05;2.50;;;;;;;;;;5032630;28;20280;-59
2023/08/17 01:06:07;;;;;;;6.90;2.50;;;;;;;;;;5049246;28;20682;-59
2023/08/17 01:08:32;;;;;;;7.85;2.78;;;;;;;;;;5047705;28;20221;-59
2023/08/17 01:10:59;;;;;;;7.28;2.85;;;;;;;;;;5049433;28;20199;-59
2023/08/17 01:13:25;;;;;;;6.85;2.35;;;;;;;;;;5049318;28;20322;-59
2023/08/17 01:15:53;;;;;;;6.63;2.40;;;;;;;;;;5030910;28;20238;-59
2023/08/17 01:18:22;;;;;;;7.95;2.28;;;;;;;;;;5047649;28;20222;-59
2023/08/17 01:20:47;;;;;;;8.02;2.63;;;;;;;;;;5049581;28;20215;-59
2023/08/17 01:23:12;;;;;;;8.30;2.33;;;;;;;;;;5031500;28;20644;-59
2023/08/17 01:25:38;;;;;;;8.90;2.60;;;;;;;;;;5046641;28;20259;-59
2023/08/17 01:28:04;;;;;;;7.18;2.50;;;;;;;;;;5048870;28;20310;-59
2023/08/17 01:30:30;;;;;;;6.50;2.40;;;;;;;;;;5049845;28;20219;-59
2023/08/17 01:32:58;;;;;;;8.45;2.38;;;;;;;;;;5047651;28;20218;-59
2023/08/17 01:35:32;;;;;;;7.38;2.30;;;;;;;;;;5048324;28;20219;-59
2023/08/17 01:37:58;;;;;;;5.72;2.60;;;;;;;;;;5031989;28;20207;-59
2023/08/17 01:40:24;;;;;;;5.53;2.47;;;;;;;;;;5047793;28;20223;-59
2023/08/17 01:42:49;;;;;;;7.72;2.70;;;;;;;;;;5029165;28;20234;-59
2023/08/17 01:45:14;;;;;;;9.07;2.80;;;;;;;;;;5049128;28;20288;-59
2023/08/17 01:47:39;;;;;;;10.40;2.88;;;;;;;;;;5048716;28;20214;-59
2023/08/17 01:50:05;;;;;;;5.63;2.70;;;;;;;;;;5047142;28;20215;-59
2023/08/17 01:52:30;;;;;;;9.52;2.83;;;;;;;;;;5030574;28;20219;-59
2023/08/17 01:54:56;;;;;;;8.75;2.80;;;;;;;;;;5048291;28;20276;-59
2023/08/17 01:57:21;;;;;;;8.18;2.75;;;;;;;;;;5047548;28;20210;-59
2023/08/17 01:59:46;;;;;;;8.30;2.95;;;;;;;;;;5047869;28;20218;-58
2023/08/17 02:02:14;;;;;;;8.85;3.13;;;;;;;;;;5048230;28;20203;-59
2023/08/17 02:04:39;;;;;;;6.57;2.60;;;;;;;;;;5048821;28;20349;-59
2023/08/17 02:07:05;;;;;;;7.82;2.55;;;;;;;;;;5045946;28;20290;-59
2023/08/17 02:09:30;;;;;;;11.25;3.08;;;;;;;;;;5048365;28;20211;-59
2023/08/17 02:11:55;;;;;;;7.55;2.92;;;;;;;;;;5048624;28;20245;-59
2023/08/17 02:14:21;;;;;;;7.80;2.58;;;;;;;;;;5046558;28;20658;-59
2023/08/17 02:16:46;;;;;;;7.60;2.63;;;;;;;;;;5047775;28;20214;-59
2023/08/17 02:19:11;;;;;;;9.32;2.78;;;;;;;;;;5048676;28;20568;-59
2023/08/17 02:21:37;;;;;;;7.78;2.75;;;;;;;;;;5047768;28;20215;-59
2023/08/17 02:24:02;;;;;;;7.95;2.70;;;;;;;;;;5046061;28;20211;-59
2023/08/17 02:26:28;;;;;;;7.45;2.83;;;;;;;;;;5048608;28;20686;-59
2023/08/17 02:28:54;;;;;;;8.82;3.38;;;;;;;;;;5047974;28;20268;-59
2023/08/17 02:31:19;;;;;;;7.20;2.55;;;;;;;;;;5045772;28;20199;-59
2023/08/17 02:33:45;;;;;;;8.65;2.70;;;;;;;;;;5048519;28;20211;-59
2023/08/17 02:36:10;;;;;;;9.05;2.83;;;;;;;;;;5047472;28;20298;-59
2023/08/17 02:38:35;;;;;;;7.70;2.83;;;;;;;;;;5046904;28;20601;-59
2023/08/17 02:41:00;;;;;;;8.98;2.85;;;;;;;;;;5046986;28;20278;-59
2023/08/17 02:43:26;;;;;;;11.68;3.08;;;;;;;;;;5047802;28;20240;-59
2023/08/17 02:45:51;;;;;;;7.10;2.80;;;;;;;;;;5047794;28;20218;-59
2023/08/17 02:48:16;;;;;;;8.45;3.15;;;;;;;;;;5046001;28;20221;-59
2023/08/17 02:50:42;;;;;;;8.07;2.72;;;;;;;;;;5047929;28;20218;-59
2023/08/17 02:53:07;;;;;;;7.50;2.90;;;;;;;;;;5047472;28;20215;-59
2023/08/17 02:55:32;;;;;;;9.05;3.10;;;;;;;;;;5046302;28;20213;-59
2023/08/17 02:57:58;;;;;;;8.27;2.90;;;;;;;;;;5047133;28;20233;-59
2023/08/17 03:00:23;;;;;;;12.23;3.17;;;;;;;;;;5047817;28;20215;-59
2023/08/17 03:02:48;;;;;;;10.90;3.22;;;;;;;;;;5046685;28;20211;-59
2023/08/17 03:05:14;;;;;;;8.20;2.70;;;;;;;;;;5044480;28;20226;-59
2023/08/17 03:07:39;;;;;;;12.93;3.45;;;;;;;;;;5047973;28;20207;-59
2023/08/17 03:10:04;;;;;;;7.20;3.40;;;;;;;;;;5047506;28;20222;-59
2023/08/17 03:12:30;;;;;;;8.40;3.17;;;;;;;;;;5044808;28;20222;-59
2023/08/17 03:14:55;;;;;;;10.52;3.50;;;;;;;;;;5048206;28;20255;-59
2023/08/17 03:17:20;;;;;;;9.00;3.20;;;;;;;;;;5047615;28;20233;-59
2023/08/17 03:19:46;;;;;;;7.13;3.00;;;;;;;;;;5045527;28;20225;-59
2023/08/17 03:22:11;;;;;;;10.98;3.42;;;;;;;;;;5046823;28;20223;-59
2023/08/17 03:24:36;;;;;;;9.05;3.20;;;;;;;;;;5047836;28;20234;-59
2023/08/17 03:27:01;;;;;;;10.00;3.40;;;;;;;;;;5045810;28;20218;-59
2023/08/17 03:29:27;;;;;;;9.35;3.38;;;;;;;;;;5046302;28;20207;-59
2023/08/17 03:31:52;;;;;;;10.07;3.50;;;;;;;;;;5047611;28;20219;-59
2023/08/17 03:34:17;;;;;;;8.55;3.20;;;;;;;;;;5047149;28;20692;-59
2023/08/17 03:36:43;;;;;;;8.07;3.50;;;;;;;;;;5045405;28;20242;-59
2023/08/17 03:39:08;;;;;;;8.75;3.30;;;;;;;;;;5046477;28;20227;-59
2023/08/17 03:41:36;;;;;;;8.13;3.22;;;;;;;;;;5029735;28;20207;-59
2023/08/17 03:44:02;;;;;;;10.43;3.42;;;;;;;;;;5045432;28;20294;-59
2023/08/17 03:46:27;;;;;;;7.88;3.35;;;;;;;;;;5046322;28;20320;-59
2023/08/17 03:48:52;;;;;;;10.30;3.17;;;;;;;;;;5047591;28;20214;-59
2023/08/17 03:51:17;;;;;;;6.90;3.63;;;;;;;;;;5046713;28;20744;-59
2023/08/17 03:53:43;;;;;;;7.43;3.30;;;;;;;;;;5045532;28;20215;-59
2023/08/17 03:56:08;;;;;;;11.60;3.17;;;;;;;;;;5046795;28;20200;-59
2023/08/17 03:58:34;;;;;;;8.85;3.60;;;;;;;;;;5047731;28;20241;-59
2023/08/17 04:01:00;;;;;;;7.22;2.92;;;;;;;;;;5044572;28;20230;-59
2023/08/17 04:03:25;;;;;;;6.72;3.40;;;;;;;;;;5028900;28;20238;-59
2023/08/17 04:05:50;;;;;;;10.15;3.65;;;;;;;;;;5047418;28;20219;-59
2023/08/17 04:08:15;;;;;;;9.48;3.08;;;;;;;;;;5045147;28;20211;-59
2023/08/17 04:10:41;;;;;;;8.88;3.50;;;;;;;;;;5046412;28;20218;-59
2023/08/17 04:13:06;;;;;;;10.25;3.67;;;;;;;;;;5046787;28;20221;-59
2023/08/17 04:15:31;;;;;;;8.43;3.80;;;;;;;;;;5046454;28;20211;-59
2023/08/17 04:17:57;;;;;;;9.77;3.60;;;;;;;;;;5048687;28;20805;-59
2023/08/17 04:20:22;;;;;;;10.77;3.40;;;;;;;;;;5050431;28;20218;-59
2023/08/17 04:22:48;;;;;;;9.18;3.50;;;;;;;;;;5050343;28;20298;-59
2023/08/17 04:25:13;;;;;;;8.88;3.38;;;;;;;;;;5048496;28;20235;-59
2023/08/17 04:27:38;;;;;;;10.48;3.90;;;;;;;;;;5050612;28;20214;-59
2023/08/17 04:30:04;;;;;;;10.30;3.50;;;;;;;;;;5049734;28;20207;-59
2023/08/17 04:32:29;;;;;;;8.75;3.28;;;;;;;;;;5049615;28;20579;-59
2023/08/17 04:34:55;;;;;;;13.00;3.60;;;;;;;;;;5049406;28;20298;-59
2023/08/17 04:37:20;;;;;;;7.47;3.22;;;;;;;;;;5049771;28;20662;-58
2023/08/17 04:39:48;;;;;;;8.88;3.28;;;;;;;;;;5050578;28;20291;-59
2023/08/17 04:42:13;;;;;;;6.47;3.10;;;;;;;;;;5047440;28;20290;-59
2023/08/17 04:44:38;;;;;;;10.50;4.25;;;;;;;;;;5050249;28;20233;-59
2023/08/17 04:47:04;;;;;;;7.95;3.05;;;;;;;;;;5050442;28;20214;-59
2023/08/17 04:49:29;;;;;;;9.68;3.13;;;;;;;;;;5048472;28;20353;-59
2023/08/17 04:51:54;;;;;;;7.13;3.05;;;;;;;;;;5049770;28;20674;-59
2023/08/17 04:54:20;;;;;;;7.20;3.00;;;;;;;;;;5049887;28;20223;-59
2023/08/17 04:56:45;;;;;;;8.00;2.63;;;;;;;;;;5049202;28;20207;-59
2023/08/17 04:59:10;;;;;;;8.60;2.97;;;;;;;;;;5047936;28;20268;-59
2023/08/17 05:01:36;;;;;;;7.75;3.10;;;;;;;;;;5050546;28;20260;-59
2023/08/17 05:04:02;;;;;;;12.63;3.33;;;;;;;;;;5048984;28;20659;-59
2023/08/17 05:06:28;;;;;;;9.95;3.30;;;;;;;;;;5047556;28;20225;-59
2023/08/17 05:08:53;;;;;;;7.32;2.97;;;;;;;;;;5050406;28;20300;-59
2023/08/17 05:11:18;;;;;;;8.85;3.08;;;;;;;;;;5049167;28;20225;-59
2023/08/17 05:13:44;;;;;;;9.50;2.78;;;;;;;;;;5048243;28;20211;-59
2023/08/17 05:16:09;;;;;;;7.93;2.90;;;;;;;;;;5048523;28;20230;-59
2023/08/17 05:18:34;;;;;;;9.13;2.80;;;;;;;;;;5049590;28;20258;-59
2023/08/17 05:21:00;;;;;;;8.32;2.63;;;;;;;;;;5049250;28;20299;-59
2023/08/17 05:23:25;;;;;;;9.40;3.42;;;;;;;;;;5042191;28;20295;-59
2023/08/17 05:25:51;;;;;;;8.93;2.90;;;;;;;;;;5044645;28;20231;-59
2023/08/17 05:28:16;;;;;;;7.85;2.75;;;;;;;;;;5044791;28;20211;-59
2023/08/17 05:30:41;;;;;;;7.85;2.70;;;;;;;;;;5040810;28;20245;-59
2023/08/17 05:33:07;;;;;;;6.25;2.67;;;;;;;;;;5044500;28;20207;-59
2023/08/17 05:35:32;;;;;;;8.38;3.53;;;;;;;;;;5047432;28;20231;-59
2023/08/17 05:37:57;;;;;;;11.10;2.97;;;;;;;;;;5048368;28;20282;-59
2023/08/17 05:40:23;;;;;;;6.07;2.58;;;;;;;;;;5047035;28;20229;-59
2023/08/17 05:42:48;;;;;;;9.88;2.50;;;;;;;;;;5050023;28;20576;-59
2023/08/17 05:45:13;;;;;;;9.50;2.78;;;;;;;;;;5048403;28;20606;-59
2023/08/17 05:47:39;;;;;;;7.50;2.70;;;;;;;;;;5046599;28;20218;-59
2023/08/17 05:50:04;;;;;;;8.50;2.90;;;;;;;;;;5049053;28;20772;-59
2023/08/17 05:52:31;;;;;;;7.45;2.60;;;;;;;;;;5049047;28;20268;-59
2023/08/17 05:54:56;;;;;;;7.38;2.42;;;;;;;;;;5047205;28;20219;-59
2023/08/17 05:57:22;;;;;;;7.90;2.70;;;;;;;;;;5048442;28;20230;-59
2023/08/17 05:59:47;;;;;;;11.73;2.75;;;;;;;;;;5048596;28;20209;-59
2023/08/17 06:02:12;;;;;;;7.38;2.50;;;;;;;;;;5047563;28;20630;-59
2023/08/17 06:04:38;;;;;;;9.60;3.30;;;;;;;;;;5047742;28;20219;-59
2023/08/17 06:07:03;;;;;;;8.05;2.40;;;;;;;;;;5050280;28;20639;-59
2023/08/17 06:09:29;;;;;;;7.88;2.63;;;;;;;;;;5050488;28;20626;-59
2023/08/17 06:11:54;;;;;;;7.88;2.28;;;;;;;;;;5048264;28;20298;-59
2023/08/17 06:14:19;;;;;;;7.05;3.03;;;;;;;;;;5047094;28;23361;-59
2023/08/17 06:16:45;;;;;;;10.43;2.92;;;;;;;;;;5048726;28;20222;-59
2023/08/17 06:19:10;;;;;;;6.65;2.30;;;;;;;;;;5047845;28;20218;-59
2023/08/17 06:21:35;;;;;;;8.65;2.80;;;;;;;;;;5046302;28;20215;-59
2023/08/17 06:24:01;;;;;;;7.43;2.75;;;;;;;;;;5048324;28;20203;-60
2023/08/17 06:26:26;;;;;;;5.85;2.90;;;;;;;;;;5048634;28;20226;-59
2023/08/17 06:28:51;;;;;;;4.47;2.08;;;;;;;;;;5046044;28;20211;-59
2023/08/17 06:31:16;;;;;;;6.57;2.60;;;;;;;;;;5047526;28;20570;-59
2023/08/17 06:33:42;;;;;;;9.85;2.53;;;;;;;;;;5048720;28;20913;-59
2023/08/17 06:36:07;;;;;;;7.95;2.67;;;;;;;;;;5045904;28;20588;-59
2023/08/17 06:38:32;;;;;;;7.45;2.70;;;;;;;;;;5047618;28;20294;-59
2023/08/17 06:40:58;;;;;;;8.82;2.60;;;;;;;;;;5048509;28;20214;-59
2023/08/17 06:43:23;;;;;;;6.75;2.70;;;;;;;;;;5047016;28;20221;-59
2023/08/17 06:45:48;;;;;;;7.95;2.72;;;;;;;;;;5046275;28;20214;-59
2023/08/17 06:48:14;;;;;;;5.03;2.53;;;;;;;;;;5047997;28;20636;-59
2023/08/17 06:50:39;;;;;;;8.07;2.40;;;;;;;;;;5047460;28;20648;-59
2023/08/17 06:53:04;;;;;;;7.45;2.70;;;;;;;;;;5045889;28;20221;-59
2023/08/17 06:55:30;;;;;;;9.00;2.55;;;;;;;;;;5047975;28;20218;-59
2023/08/17 06:57:55;;;;;;;6.78;2.58;;;;;;;;;;5047511;28;20203;-59
2023/08/17 07:00:20;;;;;;;8.45;2.38;;;;;;;;;;5046525;28;20223;-59
2023/08/17 07:02:47;;;;;;;6.85;2.60;;;;;;;;;;5046494;28;20234;-59
2023/08/17 07:05:13;;;;;;;9.57;2.78;;;;;;;;;;5047349;28;20717;-59
2023/08/17 07:07:39;;;;;;;7.15;2.70;;;;;;;;;;5048174;28;20214;-59
2023/08/17 07:10:04;;;;;;;9.35;2.80;;;;;;;;;;5045099;28;20280;-59
2023/08/17 07:12:29;;;;;;;6.65;2.65;;;;;;;;;;5048110;28;20215;-59
2023/08/17 07:14:55;;;;;;;11.52;2.90;;;;;;;;;;5030024;28;20261;-59
2023/08/17 07:17:20;;;;;;;8.32;2.47;;;;;;;;;;5045142;28;20272;-59
2023/08/17 07:19:45;;;;;;;7.07;2.42;;;;;;;;;;5047124;28;20215;-59
2023/08/17 07:22:11;;;;;;;7.75;2.45;;;;;;;;;;5047393;28;20199;-59
2023/08/17 07:24:36;;;;;;;7.95;2.67;;;;;;;;;;5046954;28;20218;-59
2023/08/17 07:27:02;;;;;;;5.40;2.30;;;;;;;;;;5045802;28;20230;-59
2023/08/17 07:29:27;;;;;;;7.68;2.42;;;;;;;;;;5048028;28;20352;-59
2023/08/17 07:31:54;;;;;;;4.70;2.20;;;;;;;;;;5047407;28;20685;-59
2023/08/17 07:34:20;;;;;;;5.72;2.70;;;;;;;;;;5044502;28;20218;-59
2023/08/17 07:36:45;;;;;;;7.07;2.60;;;;;;;;;;5048089;28;20283;-59
2023/08/17 07:39:10;;;;;;;10.82;3.30;;;;;;;;;;5046532;28;20235;-59
2023/08/17 07:41:36;;;;;;;9.32;2.97;;;;;;;;;;5046488;28;20206;-59
2023/08/17 07:44:01;;;;;;;7.63;2.40;;;;;;;;;;5046527;28;20214;-59
2023/08/17 07:46:26;;;;;;;7.43;2.42;;;;;;;;;;5046490;28;20369;-59
2023/08/17 07:48:52;;;;;;;8.68;2.78;;;;;;;;;;5047026;28;20211;-59
2023/08/17 07:51:17;;;;;;;9.52;2.78;;;;;;;;;;5046343;28;20211;-59
2023/08/17 07:53:42;;;;;;;7.68;2.60;;;;;;;;;;5051159;28;20252;-59
2023/08/17 07:56:08;;;;;;;9.13;2.65;;;;;;;;;;5051402;28;20745;-59
2023/08/17 07:58:33;;;;;;;9.88;2.85;;;;;;;;;;5049486;28;20219;-59
2023/08/17 08:00:58;;;;;;;9.88;3.17;;;;;;;;;;5053825;28;20215;-59
2023/08/17 08:03:24;;;;;;;7.15;2.70;;;;;;;;;;5053789;28;20211;-59
2023/08/17 08:05:49;;;;;;;7.50;2.78;;;;;;;;;;5054044;28;20583;-59
2023/08/17 08:08:16;;;;;;;8.07;2.80;;;;;;;;;;5052978;28;20210;-59
2023/08/17 08:10:41;;;;;;;9.48;3.38;;;;;;;;;;5054221;28;20219;-59
2023/08/17 08:13:06;;;;;;;7.43;3.30;;;;;;;;;;5053111;28;20223;-59
2023/08/17 08:15:33;;;;;;;9.88;2.88;;;;;;;;;;5053976;28;20229;-59
2023/08/17 08:17:58;;;;;;;6.50;2.80;;;;;;;;;;5053826;28;20238;-59
2023/08/17 08:20:23;;;;;;;8.13;3.20;;;;;;;;;;5052887;28;20676;-59
2023/08/17 08:22:49;;;;;;;8.68;2.97;;;;;;;;;;5053607;28;20293;-59
2023/08/17 08:25:14;;;;;;;8.05;2.80;;;;;;;;;;5053488;28;20227;-59
2023/08/17 08:27:39;;;;;;;7.38;3.20;;;;;;;;;;5053304;28;20213;-59
2023/08/17 08:30:06;;;;;;;9.52;2.97;;;;;;;;;;5053316;28;20215;-59
2023/08/17 08:32:31;;;;;;;8.70;3.22;;;;;;;;;;5053555;28;20238;-59
2023/08/17 08:34:57;;;;;;;10.23;3.38;;;;;;;;;;5053141;28;20235;-59
2023/08/17 08:37:22;;;;;;;8.15;3.20;;;;;;;;;;5052891;28;20226;-59
2023/08/17 08:39:49;;;;;;;8.45;3.80;;;;;;;;;;5053710;28;20272;-59
2023/08/17 08:42:15;;;;;;;12.13;3.30;;;;;;;;;;5052593;28;20670;-59
2023/08/17 08:44:40;;;;;;;10.05;3.20;;;;;;;;;;5035614;28;20214;-59
2023/08/17 08:47:06;;;;;;;5.85;2.83;;;;;;;;;;5052793;28;20302;-59
2023/08/17 08:49:31;;;;;;;10.68;3.03;;;;;;;;;;5034750;28;20218;-59
2023/08/17 08:51:59;;;;;;;9.80;3.20;;;;;;;;;;5035612;28;20207;-59
2023/08/17 08:54:24;;;;;;;7.15;2.95;;;;;;;;;;5052994;28;20531;-59
2023/08/17 08:56:51;;;;;;;12.18;3.17;;;;;;;;;;5034768;28;20260;-59
2023/08/17 08:59:16;;;;;;;10.25;3.55;;;;;;;;;;5052871;28;20609;-59
2023/08/17 09:01:42;;;;;;;10.02;4.60;;;;;;;;;;5053169;28;20261;-59
2023/08/17 09:04:07;;;;;;;9.10;4.10;;;;;;;;;;5050554;28;20658;-59
2023/08/17 09:06:32;;;;;;;10.07;4.25;;;;;;;;;;5052906;28;20222;-59
2023/08/17 09:08:59;;;;;;;14.13;4.53;;;;;;;;;;5035522;28;20211;-59
2023/08/17 09:11:24;;;;;;;15.35;4.85;;;;;;;;;;5051892;28;20200;-59
2023/08/17 09:13:50;;;;;;;10.43;5.05;;;;;;;;;;5053124;28;20260;-59
2023/08/17 09:16:15;;;;;;;13.90;5.38;;;;;;;;;;5052779;28;20544;-59
2023/08/17 09:18:40;;;;;;;12.68;4.65;;;;;;;;;;5046707;28;20215;-59
2023/08/17 09:21:06;;;;;;;10.98;4.85;;;;;;;;;;5049900;28;20211;-59
2023/08/17 09:23:31;;;;;;;10.27;5.72;;;;;;;;;;5031602;28;20218;-59
2023/08/17 09:25:58;;;;;;;14.82;5.00;;;;;;;;;;5047260;28;20233;-59
2023/08/17 09:28:23;;;;;;;11.82;5.60;;;;;;;;;;5048909;28;20563;-59
2023/08/17 09:30:52;;;;;;;11.73;4.72;;;;;;;;;;5031615;28;20303;-59
2023/08/17 09:33:17;;;;;;;14.55;6.05;;;;;;;;;;5048435;28;20211;-59
2023/08/17 09:35:43;;;;;;;16.70;5.55;;;;;;;;;;5047945;28;20222;-59
2023/08/17 09:38:08;;;;;;;14.30;6.78;;;;;;;;;;5048773;28;20208;-59
2023/08/17 09:40:34;;;;;;;16.25;8.60;;;;;;;;;;5049582;28;20249;-59
2023/08/17 09:42:59;;;;;;;9.77;5.45;;;;;;;;;;5046985;28;20245;-59
2023/08/17 09:45:25;;;;;;;11.88;5.50;;;;;;;;;;5040012;28;20669;-59
2023/08/17 09:47:50;;;;;;;12.07;5.30;;;;;;;;;;5049477;28;20962;-59
2023/08/17 09:50:16;;;;;;;8.77;4.80;;;;;;;;;;5047494;28;20245;-59
2023/08/17 09:52:41;;;;;;;15.02;6.05;;;;;;;;;;5047881;28;20689;-59
2023/08/17 09:55:07;;;;;;;11.10;5.50;;;;;;;;;;5048872;28;20567;-59
2023/08/17 09:57:33;;;;;;;13.55;5.50;;;;;;;;;;5048873;28;20210;-59
2023/08/17 09:59:58;;;;;;;16.75;8.13;;;;;;;;;;5028882;28;20260;-59
2023/08/17 10:02:24;;;;;;;11.63;5.68;;;;;;;;;;5048809;28;20203;-59
2023/08/17 10:04:50;;;;;;;11.15;4.82;;;;;;;;;;5030838;28;20310;-59
2023/08/17 10:07:16;;;;;;;12.10;5.47;;;;;;;;;;5045354;28;20211;-59
2023/08/17 10:09:42;;;;;;;11.23;5.75;;;;;;;;;;5049159;28;21199;-59
2023/08/17 10:12:10;;;;;;;15.35;6.07;;;;;;;;;;5030696;28;20207;-59
2023/08/17 10:14:37;;;;;;;14.65;5.60;;;;;;;;;;5046863;28;20207;-59
2023/08/17 10:17:03;;;;;;;13.02;5.55;;;;;;;;;;5043297;28;20223;-59
2023/08/17 10:19:34;;;;;;;11.55;6.07;;;;;;;;;;5048717;28;20728;-59
2023/08/17 10:22:03;;;;;;;13.63;6.13;;;;;;;;;;5048296;28;20211;-59
2023/08/17 10:24:29;;;;;;;12.63;5.82;;;;;;;;;;5046058;28;20666;-59
2023/08/17 10:26:54;;;;;;;13.98;6.32;;;;;;;;;;5048254;28;20226;-59
2023/08/17 10:29:20;;;;;;;10.52;5.40;;;;;;;;;;5030188;28;20200;-59
2023/08/17 10:31:46;;;;;;;14.43;6.25;;;;;;;;;;5029666;28;20215;-59
2023/08/17 10:34:11;;;;;;;15.25;6.18;;;;;;;;;;5046428;28;20210;-59
2023/08/17 10:36:36;;;;;;;15.52;5.72;;;;;;;;;;5048456;28;20210;-59
2023/08/17 10:39:23;;;;;;;13.00;5.60;;;;;;;;;;5029681;28;20288;-59
2023/08/17 10:41:49;;;;;;;15.27;5.85;;;;;;;;;;5045968;28;20245;-59
2023/08/17 10:44:16;;;;;;;12.75;6.10;;;;;;;;;;5047486;28;20227;-59
2023/08/17 10:46:43;;;;;;;12.55;6.57;;;;;;;;;;5048245;28;20288;-59
2023/08/17 10:49:23;;;;;;;13.55;7.05;;;;;;;;;;5046282;28;20215;-59
2023/08/17 10:52:02;;;;;;;14.48;7.00;;;;;;;;;;5046226;28;20223;-59
2023/08/17 10:54:43;;;;;;;15.07;7.55;;;;;;;;;;5039631;28;20218;-59
2023/08/17 10:57:25;;;;;;;14.05;7.03;;;;;;;;;;5047281;28;20214;-59
2023/08/17 11:00:05;;;;;;;15.38;6.70;;;;;;;;;;5048324;28;20289;-59
2023/08/17 11:02:32;;;;;;;12.60;7.07;;;;;;;;;;5033245;28;20730;-59
2023/08/17 11:04:57;;;;;;;11.80;6.32;;;;;;;;;;5027483;28;20323;-59
2023/08/17 11:07:23;;;;;;;11.52;6.40;;;;;;;;;;5027381;28;20294;-59
2023/08/17 11:09:48;;;;;;;12.82;6.07;;;;;;;;;;5026510;28;20265;-59
2023/08/17 11:12:31;;;;;;;14.25;6.47;;;;;;;;;;5026593;28;20212;-59
2023/08/17 11:14:59;;;;;;;11.85;7.30;;;;;;;;;;5028179;28;20222;-59
2023/08/17 11:17:24;;;;;;;12.52;6.70;;;;;;;;;;5027144;28;20307;-59
2023/08/17 11:19:51;;;;;;;13.45;6.68;;;;;;;;;;5026402;28;20220;-59
2023/08/17 11:22:16;;;;;;;11.95;6.65;;;;;;;;;;5027308;28;20215;-59
2023/08/17 11:24:42;;;;;;;13.43;6.60;;;;;;;;;;5027114;28;20555;-59
2023/08/17 11:27:08;;;;;;;15.50;7.18;;;;;;;;;;5029449;28;20215;-59
2023/08/17 11:29:34;;;;;;;14.90;6.15;;;;;;;;;;5029109;28;20703;-59
2023/08/17 11:31:59;;;;;;;11.98;6.78;;;;;;;;;;5030541;28;20212;-59
2023/08/17 11:34:24;;;;;;;10.77;6.45;;;;;;;;;;5031829;28;20257;-59
2023/08/17 11:36:50;;;;;;;12.45;7.07;;;;;;;;;;5029504;28;20334;-59
2023/08/17 11:39:15;;;;;;;13.90;7.97;;;;;;;;;;5030874;28;20285;-59
2023/08/17 11:41:41;;;;;;;11.90;7.72;;;;;;;;;;5032068;28;20222;-59
2023/08/17 11:44:06;;;;;;;12.80;7.40;;;;;;;;;;5029504;28;20223;-59
2023/08/17 11:46:32;;;;;;;13.07;8.40;;;;;;;;;;5031200;28;20722;-59
2023/08/17 11:48:59;;;;;;;13.77;7.72;;;;;;;;;;5032018;28;20211;-59
2023/08/17 11:51:29;;;;;;;15.05;7.00;;;;;;;;;;5029880;28;20219;-59
2023/08/17 11:53:58;;;;;;;10.07;6.78;;;;;;;;;;5029373;28;20307;-58
2023/08/17 11:56:23;;;;;;;13.80;7.22;;;;;;;;;;5026115;28;20649;-59
2023/08/17 11:58:48;;;;;;;14.18;6.82;;;;;;;;;;5028405;28;20207;-58
2023/08/17 12:01:15;;;;;;;12.40;7.00;;;;;;;;;;5029275;28;20612;-58
2023/08/17 12:03:41;;;;;;;14.32;7.15;;;;;;;;;;5031017;28;20215;-58
2023/08/17 12:06:06;;;;;;;11.07;6.95;;;;;;;;;;5030250;28;20289;-59
2023/08/17 12:08:33;;;;;;;13.73;6.82;;;;;;;;;;5029486;28;20298;-59
2023/08/17 12:10:58;;;;;;;14.88;7.25;;;;;;;;;;5029916;28;20690;-59
2023/08/17 12:13:32;;;;;;;12.43;7.00;;;;;;;;;;5029869;28;20227;-58
2023/08/17 12:15:58;;;;;;;15.95;7.28;;;;;;;;;;5031297;28;20216;-58
2023/08/17 12:18:24;;;;;;;14.32;8.05;;;;;;;;;;5029020;28;20216;-59
2023/08/17 12:20:53;;;;;;;13.00;7.78;;;;;;;;;;5028523;28;20219;-58
2023/08/17 12:23:18;;;;;;;12.52;7.43;;;;;;;;;;5030565;28;20224;-59
2023/08/17 12:25:43;;;;;;;12.10;6.80;;;;;;;;;;5030103;28;20235;-59
2023/08/17 12:28:09;;;;;;;13.68;7.30;;;;;;;;;;5028191;28;20298;-59
2023/08/17 12:30:36;;;;;;;13.57;6.82;;;;;;;;;;5029641;28;20212;-59
2023/08/17 12:33:01;;;;;;;12.88;7.38;;;;;;;;;;5030892;28;20588;-59
2023/08/17 12:35:26;;;;;;;11.65;6.80;;;;;;;;;;5027797;28;20290;-59
2023/08/17 12:37:52;;;;;;;14.50;7.40;;;;;;;;;;5022087;28;20577;-59
2023/08/17 12:40:17;;;;;;;14.93;6.70;;;;;;;;;;5029294;28;21649;-59
2023/08/17 12:42:44;;;;;;;13.23;6.70;;;;;;;;;;5028879;28;20208;-59
2023/08/17 12:45:09;;;;;;;12.75;7.63;;;;;;;;;;5029642;28;20274;-59
2023/08/17 12:47:35;;;;;;;13.50;8.18;;;;;;;;;;5029979;28;20785;-60
2023/08/17 12:50:00;;;;;;;12.07;7.75;;;;;;;;;;5029460;28;20208;-59
2023/08/17 12:52:25;;;;;;;13.30;7.45;;;;;;;;;;5028692;28;20249;-59
2023/08/17 12:54:51;;;;;;;14.15;7.90;;;;;;;;;;5030142;28;20736;-59
2023/08/17 12:57:16;;;;;;;10.20;8.15;;;;;;;;;;5026997;28;20257;-59
2023/08/17 12:59:41;;;;;;;13.73;7.85;;;;;;;;;;5028493;28;20697;-59
2023/08/17 13:02:08;;;;;;;10.35;8.10;;;;;;;;;;5029395;28;20215;-59
2023/08/17 13:04:33;;;;;;;13.48;8.00;;;;;;;;;;5030492;28;20738;-59
2023/08/17 13:06:59;;;;;;;12.60;8.25;;;;;;;;;;5029137;28;20315;-59
2023/08/17 13:09:24;;;;;;;12.85;8.18;;;;;;;;;;5028125;28;20719;-59
2023/08/17 13:11:49;;;;;;;13.10;8.90;;;;;;;;;;5030046;28;20576;-59
2023/08/17 13:14:16;;;;;;;12.43;7.88;;;;;;;;;;5028174;28;20215;-59
2023/08/17 13:16:41;;;;;;;12.48;9.07;;;;;;;;;;5027397;28;20299;-59
2023/08/17 13:19:06;;;;;;;12.63;9.63;;;;;;;;;;5029996;28;20246;-59
2023/08/17 13:21:32;;;;;;;15.55;9.90;;;;;;;;;;5030489;28;20288;-59
2023/08/17 13:23:57;;;;;;;12.05;9.57;;;;;;;;;;5025965;28;20679;-59
2023/08/17 13:26:22;;;;;;;12.18;9.43;;;;;;;;;;5028587;28;20230;-59
2023/08/17 13:28:48;;;;;;;12.05;8.70;;;;;;;;;;5029836;28;20655;-59
2023/08/17 13:31:13;;;;;;;14.48;9.32;;;;;;;;;;5025865;28;20227;-59
2023/08/17 13:33:38;;;;;;;13.82;9.25;;;;;;;;;;5012428;28;20240;-59
2023/08/17 13:36:04;;;;;;;14.27;8.07;;;;;;;;;;5010900;28;20247;-59
2023/08/17 13:38:29;;;;;;;12.32;8.30;;;;;;;;;;5003822;28;20237;-59
2023/08/17 13:40:54;;;;;;;16.10;9.02;;;;;;;;;;5010840;28;20332;-59
2023/08/17 13:43:20;;;;;;;13.02;8.57;;;;;;;;;;5010376;28;20225;-59
2023/08/17 13:45:45;;;;;;;12.95;8.90;;;;;;;;;;5010495;28;20585;-59
2023/08/17 13:48:10;;;;;;;13.43;10.45;;;;;;;;;;5013741;28;20285;-59
2023/08/17 13:50:37;;;;;;;12.90;9.20;;;;;;;;;;5010887;28;20242;-59
2023/08/17 13:53:02;;;;;;;12.75;9.50;;;;;;;;;;5011119;28;20220;-60
2023/08/17 13:55:28;;;;;;;14.82;10.00;;;;;;;;;;5009013;28;20524;-59
2023/08/17 13:57:55;;;;;;;11.30;9.32;;;;;;;;;;5006725;28;20247;-59
2023/08/17 14:00:20;;;;;;;14.85;10.32;;;;;;;;;;5003795;28;20629;-58
2023/08/17 14:02:46;;;;;;;12.90;9.73;;;;;;;;;;5007126;28;20224;-59
2023/08/17 14:05:11;;;;;;;11.65;9.90;;;;;;;;;;5011487;28;20231;-58
2023/08/17 14:07:36;;;;;;;12.45;10.90;;;;;;;;;;5011644;28;20955;-58
2023/08/17 14:10:02;;;;;;;12.25;10.07;;;;;;;;;;5009664;28;20225;-58
2023/08/17 14:12:28;;;;;;;15.23;11.00;;;;;;;;;;5011655;28;20212;-58
2023/08/17 14:14:53;;;;;;;12.80;9.63;;;;;;;;;;5013093;28;21006;-58
2023/08/17 14:17:18;;;;;;;13.57;10.07;;;;;;;;;;5009992;28;20326;-58
2023/08/17 14:19:44;;;;;;;14.85;10.73;;;;;;;;;;5004366;28;20208;-58
2023/08/17 14:22:09;;;;;;;13.38;10.32;;;;;;;;;;5004125;28;20669;-58
2023/08/17 14:24:34;;;;;;;12.15;10.40;;;;;;;;;;5004042;28;20270;-59
2023/08/17 14:27:00;;;;;;;12.90;10.52;;;;;;;;;;5008907;28;20236;-58